TimeAST,TemperatureF,Dew PointF,Humidity,Sea Level PressureIn,VisibilityMPH,Wind Direction,Wind SpeedMPH,Gust SpeedMPH,PrecipitationIn,Events,Conditions,WindDirDegrees,DateUTC
12:56 AM,77.0,71.1,82,30.03,10.0,Calm,Calm,-,0.00,,Mostly Cloudy,0,2012-02-23 04:56:00
1:56 AM,77.0,71.1,82,30.01,10.0,Calm,Calm,-,0.00,,Scattered Clouds,0,2012-02-23 05:56:00
2:56 AM,75.9,71.1,85,30.01,10.0,ESE,4.6,-,0.04,,Scattered Clouds,110,2012-02-23 06:56:00
3:56 AM,75.0,70.0,84,30.00,10.0,Calm,Calm,-,N/A,,Partly Cloudy,0,2012-02-23 07:56:00
4:56 AM,75.0,69.1,82,30.00,10.0,Calm,Calm,-,N/A,,Scattered Clouds,0,2012-02-23 08:56:00
5:56 AM,75.0,69.1,82,30.01,10.0,Calm,Calm,-,0.02,,Scattered Clouds,0,2012-02-23 09:56:00
6:56 AM,75.9,69.1,79,30.03,10.0,Calm,Calm,-,0.00,,Scattered Clouds,0,2012-02-23 10:56:00
7:56 AM,78.1,70.0,76,30.05,10.0,ESE,4.6,-,N/A,,Scattered Clouds,110,2012-02-23 11:56:00
8:56 AM,80.1,70.0,71,30.08,10.0,East,6.9,-,N/A,,Scattered Clouds,90,2012-02-23 12:56:00
9:56 AM,82.9,70.0,65,30.09,10.0,East,9.2,-,N/A,,Scattered Clouds,90,2012-02-23 13:56:00
10:56 AM,84.0,70.0,63,30.09,10.0,East,10.4,-,N/A,,Scattered Clouds,100,2012-02-23 14:56:00
11:56 AM,84.0,71.1,65,30.08,10.0,ENE,15.0,-,N/A,,Scattered Clouds,60,2012-02-23 15:56:00
12:56 PM,84.9,71.1,63,30.06,10.0,ENE,16.1,-,N/A,,Partly Cloudy,60,2012-02-23 16:56:00
1:56 PM,84.0,71.1,65,30.04,10.0,ENE,15.0,24.2,N/A,,Scattered Clouds,60,2012-02-23 17:56:00
2:56 PM,84.0,70.0,63,30.02,10.0,ENE,17.3,23.0,N/A,,Scattered Clouds,70,2012-02-23 18:56:00
3:56 PM,84.0,68.0,58,30.01,10.0,ENE,13.8,-,N/A,,Scattered Clouds,70,2012-02-23 19:56:00
4:56 PM,82.0,69.1,65,30.01,10.0,ENE,15.0,-,N/A,,Partly Cloudy,60,2012-02-23 20:56:00
5:56 PM,80.1,69.1,69,30.00,10.0,East,10.4,-,N/A,,Partly Cloudy,80,2012-02-23 21:56:00
6:56 PM,78.1,70.0,76,30.01,10.0,East,9.2,-,N/A,,Partly Cloudy,80,2012-02-23 22:56:00
7:56 PM,78.1,70.0,76,30.02,10.0,East,8.1,-,N/A,,Scattered Clouds,80,2012-02-23 23:56:00
8:56 PM,79.0,70.0,74,30.04,10.0,NE,8.1,-,N/A,,Scattered Clouds,50,2012-02-24 00:56:00
9:56 PM,79.0,70.0,74,30.06,10.0,ENE,10.4,-,N/A,,Scattered Clouds,70,2012-02-24 01:56:00
10:56 PM,77.0,71.1,82,30.07,10.0,East,11.5,-,0.00,Rain,Light Rain,80,2012-02-24 02:56:00
11:56 PM,75.9,70.0,82,30.06,10.0,East,6.9,-,0.00,,Scattered Clouds,80,2012-02-24 03:56:00